createdAt,value
2018-04-29T00:00:27.316Z,0.00
2018-04-29T00:01:27.189Z,0.00
2018-04-29T00:02:27.067Z,0.00
2018-04-29T00:03:26.946Z,0.00
2018-04-29T00:04:26.813Z,0.00
2018-04-29T00:05:26.688Z,0.00
2018-04-29T00:06:26.562Z,0.00
2018-04-29T00:07:26.438Z,0.00
2018-04-29T00:08:26.311Z,0.00
2018-04-29T00:09:26.185Z,0.00
2018-04-29T00:10:26.059Z,0.00
2018-04-29T00:11:25.933Z,0.00
2018-04-29T00:12:25.808Z,0.00
2018-04-29T00:13:25.683Z,0.00
2018-04-29T00:14:25.557Z,0.00
2018-04-29T00:15:25.432Z,0.00
2018-04-29T00:16:25.307Z,0.00
2018-04-29T00:17:25.186Z,0.00
2018-04-29T00:18:25.055Z,0.00
2018-04-29T00:19:24.930Z,0.00
2018-04-29T00:20:24.804Z,0.00
2018-04-29T00:21:24.679Z,0.00
2018-04-29T00:22:24.550Z,0.00
2018-04-29T00:23:24.429Z,0.00
2018-04-29T00:24:24.300Z,0.00
2018-04-29T00:25:24.178Z,0.00
2018-04-29T00:26:24.048Z,0.00
2018-04-29T00:27:23.923Z,0.00
2018-04-29T00:28:23.798Z,0.00
2018-04-29T00:29:23.679Z,0.00
2018-04-29T00:30:23.546Z,0.00
2018-04-29T00:31:23.421Z,0.00
2018-04-29T00:32:23.293Z,0.00
2018-04-29T00:33:23.171Z,0.00
2018-04-29T00:34:23.044Z,0.00
2018-04-29T00:35:22.917Z,0.00
2018-04-29T00:36:22.791Z,0.00
2018-04-29T00:37:22.666Z,0.00
2018-04-29T00:38:22.542Z,0.00
2018-04-29T00:39:22.418Z,0.00
2018-04-29T00:40:22.293Z,0.00
2018-04-29T00:41:22.167Z,0.00
2018-04-29T00:42:22.040Z,0.00
2018-04-29T00:43:21.915Z,0.00
2018-04-29T00:44:21.809Z,0.00
2018-04-29T00:45:21.669Z,0.00
2018-04-29T00:46:21.542Z,0.00
2018-04-29T00:47:21.417Z,0.00
2018-04-29T00:48:21.291Z,0.00
2018-04-29T00:49:21.165Z,0.00
2018-04-29T00:50:21.037Z,0.00
2018-04-29T00:51:20.914Z,0.00
2018-04-29T00:52:20.788Z,0.00
2018-04-29T00:53:20.713Z,0.00
2018-04-29T00:54:20.535Z,0.00
2018-04-29T00:55:20.408Z,0.00
2018-04-29T00:56:20.287Z,0.00
2018-04-29T00:57:20.162Z,0.00
2018-04-29T00:58:20.032Z,0.00
2018-04-29T00:59:19.909Z,0.00
2018-04-29T01:00:19.782Z,0.00
2018-04-29T01:01:19.657Z,0.00
2018-04-29T01:02:19.530Z,0.00
2018-04-29T01:03:19.406Z,0.00
2018-04-29T01:04:19.280Z,0.00
2018-04-29T01:05:19.155Z,0.00
2018-04-29T01:06:19.030Z,0.00
2018-04-29T01:07:18.904Z,0.00
2018-04-29T01:08:18.777Z,0.00
2018-04-29T01:09:18.651Z,0.00
2018-04-29T01:10:18.525Z,0.00
2018-04-29T01:11:18.399Z,0.00
2018-04-29T01:12:18.274Z,0.00
2018-04-29T01:13:18.149Z,0.00
2018-04-29T01:14:18.029Z,0.00
2018-04-29T01:15:17.897Z,0.00
2018-04-29T01:16:17.772Z,0.00
2018-04-29T01:17:17.646Z,0.00
2018-04-29T01:18:17.519Z,0.00
2018-04-29T01:19:17.396Z,0.00
2018-04-29T01:20:17.268Z,0.00
2018-04-29T01:21:17.142Z,0.00
2018-04-29T01:22:17.017Z,0.00
2018-04-29T01:23:16.891Z,0.00
2018-04-29T01:24:16.772Z,0.00
2018-04-29T01:25:16.639Z,0.00
2018-04-29T01:26:16.515Z,0.00
2018-04-29T01:27:16.388Z,0.00
2018-04-29T01:28:16.264Z,0.00
2018-04-29T01:29:16.138Z,0.00
2018-04-29T01:30:16.012Z,0.00
2018-04-29T01:31:15.886Z,0.00
2018-04-29T01:32:15.761Z,0.00
2018-04-29T01:33:15.634Z,0.00
2018-04-29T01:34:15.508Z,0.00
2018-04-29T01:35:15.384Z,0.00
2018-04-29T01:36:15.257Z,0.00
2018-04-29T01:37:15.132Z,0.00
2018-04-29T01:38:15.006Z,0.00
2018-04-29T01:39:14.880Z,0.00
2018-04-29T01:40:14.755Z,0.00
2018-04-29T01:41:14.633Z,0.00
2018-04-29T01:42:14.505Z,0.00
2018-04-29T01:43:14.375Z,0.00
2018-04-29T01:44:14.255Z,0.00
2018-04-29T01:45:14.126Z,0.00
2018-04-29T01:46:13.998Z,0.00
2018-04-29T01:47:13.873Z,0.00
2018-04-29T01:48:13.751Z,0.00
2018-04-29T01:49:13.624Z,0.00
2018-04-29T01:50:13.499Z,0.00
2018-04-29T01:51:13.373Z,0.00
2018-04-29T01:52:13.249Z,0.00
2018-04-29T01:53:13.121Z,0.00
2018-04-29T01:54:12.997Z,0.00
2018-04-29T01:55:12.874Z,0.00
2018-04-29T01:56:12.742Z,0.00
2018-04-29T01:57:12.619Z,0.00
2018-04-29T01:58:12.490Z,0.00
2018-04-29T01:59:12.367Z,0.00
2018-04-29T02:00:12.242Z,0.00
2018-04-29T02:01:12.117Z,0.00
2018-04-29T02:02:11.989Z,0.00
2018-04-29T02:03:11.863Z,0.00
2018-04-29T02:04:11.736Z,0.00
2018-04-29T02:05:11.609Z,0.00
2018-04-29T02:06:11.487Z,0.00
2018-04-29T02:07:11.359Z,0.00
2018-04-29T02:08:11.235Z,0.00
2018-04-29T02:09:11.107Z,0.00
2018-04-29T02:10:10.980Z,0.00
2018-04-29T02:11:10.857Z,0.00
2018-04-29T02:12:10.729Z,0.00
2018-04-29T02:13:10.604Z,0.00
2018-04-29T02:14:10.480Z,0.00
2018-04-29T02:15:10.350Z,0.00
2018-04-29T02:16:10.226Z,0.00
2018-04-29T02:17:10.101Z,0.00
2018-04-29T02:18:09.974Z,0.00
2018-04-29T02:19:09.850Z,0.00
2018-04-29T02:20:09.725Z,0.00
2018-04-29T02:21:09.599Z,0.00
2018-04-29T02:22:09.477Z,0.00
2018-04-29T02:23:09.347Z,0.00
2018-04-29T02:24:09.220Z,0.00
2018-04-29T02:25:09.097Z,0.00
2018-04-29T02:26:08.970Z,0.00
2018-04-29T02:27:08.850Z,0.00
2018-04-29T02:28:08.726Z,0.00
2018-04-29T02:29:08.594Z,0.00
2018-04-29T02:30:08.467Z,0.00
2018-04-29T02:31:08.347Z,0.00
2018-04-29T02:32:08.223Z,0.00
2018-04-29T02:33:08.092Z,0.00
2018-04-29T02:34:07.966Z,0.00
2018-04-29T02:35:07.840Z,0.00
2018-04-29T02:36:07.716Z,0.00
2018-04-29T02:37:07.591Z,0.00
2018-04-29T02:38:07.464Z,0.00
2018-04-29T02:39:07.338Z,0.00
2018-04-29T02:40:07.212Z,0.00
2018-04-29T02:41:07.088Z,0.00
2018-04-29T02:42:06.961Z,0.00
2018-04-29T02:43:06.838Z,0.00
2018-04-29T02:44:06.712Z,0.00
2018-04-29T02:45:06.585Z,0.00
2018-04-29T02:46:06.462Z,0.00
2018-04-29T02:47:06.334Z,0.00
2018-04-29T02:48:06.210Z,0.00
2018-04-29T02:49:06.084Z,0.00
2018-04-29T02:50:05.959Z,0.00
2018-04-29T02:51:05.833Z,0.00
2018-04-29T02:52:05.708Z,0.00
2018-04-29T02:53:05.591Z,0.00
2018-04-29T02:54:05.455Z,0.00
2018-04-29T02:55:05.329Z,0.00
2018-04-29T02:56:05.208Z,0.00
2018-04-29T02:57:05.082Z,0.00
2018-04-29T02:58:04.955Z,0.00
2018-04-29T02:59:04.839Z,0.00
2018-04-29T03:00:04.704Z,0.00
2018-04-29T03:01:04.580Z,0.00
2018-04-29T03:02:04.453Z,0.00
2018-04-29T03:03:04.329Z,0.00
2018-04-29T03:04:04.212Z,0.00
2018-04-29T03:05:04.078Z,0.00
2018-04-29T03:06:03.954Z,0.00
2018-04-29T03:07:03.828Z,0.00
2018-04-29T03:08:03.702Z,0.00
2018-04-29T03:09:03.575Z,0.00
2018-04-29T03:10:03.450Z,0.00
2018-04-29T03:11:03.326Z,0.00
2018-04-29T03:12:03.202Z,0.00
2018-04-29T03:13:03.078Z,0.00
2018-04-29T03:14:02.950Z,0.00
2018-04-29T03:15:02.824Z,0.00
2018-04-29T03:16:02.697Z,0.00
2018-04-29T03:17:02.575Z,0.00
2018-04-29T03:18:02.453Z,0.00
2018-04-29T03:19:02.324Z,0.00
2018-04-29T03:20:02.201Z,0.00
2018-04-29T03:21:02.079Z,0.00
2018-04-29T03:22:01.947Z,0.00
2018-04-29T03:23:01.820Z,0.00
2018-04-29T03:24:01.695Z,0.00
2018-04-29T03:25:01.573Z,0.00
2018-04-29T03:26:01.444Z,0.00
2018-04-29T03:27:01.322Z,0.00
2018-04-29T03:28:01.195Z,0.00
2018-04-29T03:29:01.070Z,0.00
2018-04-29T03:30:00.946Z,0.00
2018-04-29T03:31:00.819Z,0.00
2018-04-29T03:32:00.694Z,0.00
2018-04-29T03:33:00.570Z,0.00
2018-04-29T03:34:00.442Z,0.00
2018-04-29T03:35:00.322Z,0.00
2018-04-29T03:36:00.194Z,0.00
2018-04-29T03:37:00.069Z,0.00
2018-04-29T03:37:59.944Z,0.00
2018-04-29T03:38:59.821Z,0.00
2018-04-29T03:39:59.697Z,0.00
2018-04-29T03:40:59.567Z,0.00
2018-04-29T03:41:59.441Z,0.00
2018-04-29T03:42:59.315Z,0.00
2018-04-29T03:43:59.195Z,0.00
2018-04-29T03:44:59.066Z,0.00
2018-04-29T03:45:58.943Z,0.00
2018-04-29T03:46:58.815Z,0.00
2018-04-29T03:47:58.689Z,4.00
2018-04-29T03:48:58.565Z,4.00
2018-04-29T03:49:58.439Z,0.00
2018-04-29T03:50:58.315Z,4.00
2018-04-29T03:51:58.188Z,4.00
2018-04-29T03:52:58.065Z,4.00
2018-04-29T03:53:57.939Z,4.00
2018-04-29T03:54:57.812Z,8.00
2018-04-29T03:55:57.693Z,8.00
2018-04-29T03:56:57.562Z,8.00
2018-04-29T03:57:57.435Z,8.00
2018-04-29T03:58:57.311Z,12.00
2018-04-29T03:59:57.186Z,12.00
2018-04-29T04:00:57.061Z,8.00
2018-04-29T04:01:56.933Z,12.00
2018-04-29T04:02:56.808Z,16.00
2018-04-29T04:03:56.684Z,20.00
2018-04-29T04:04:56.558Z,20.00
2018-04-29T04:05:56.432Z,24.00
2018-04-29T04:06:56.304Z,32.00
2018-04-29T04:07:56.182Z,32.00
2018-04-29T04:08:56.059Z,32.00
2018-04-29T04:09:55.931Z,36.00
2018-04-29T04:10:55.805Z,40.00
2018-04-29T04:11:55.685Z,40.00
2018-04-29T04:12:55.554Z,44.00
2018-04-29T04:13:55.429Z,44.00
2018-04-29T04:14:55.304Z,52.00
2018-04-29T04:15:55.176Z,72.00
2018-04-29T04:16:55.052Z,84.00
2018-04-29T04:17:54.928Z,88.00
2018-04-29T04:18:54.803Z,96.00
2018-04-29T04:19:54.677Z,72.00
2018-04-29T04:20:54.549Z,72.00
2018-04-29T04:21:54.424Z,88.00
2018-04-29T04:22:54.299Z,100.00
2018-04-29T04:23:54.175Z,96.00
2018-04-29T04:24:54.050Z,100.00
2018-04-29T04:25:53.927Z,84.00
2018-04-29T04:26:53.799Z,84.00
2018-04-29T04:27:53.675Z,84.00
2018-04-29T04:28:53.548Z,92.00
2018-04-29T04:29:53.423Z,100.00
2018-04-29T04:30:53.297Z,112.00
2018-04-29T04:31:53.173Z,124.00
2018-04-29T04:32:53.052Z,132.00
2018-04-29T04:33:52.923Z,156.00
2018-04-29T04:34:52.798Z,152.00
2018-04-29T04:35:52.673Z,156.00
2018-04-29T04:36:52.549Z,172.00
2018-04-29T04:37:52.422Z,180.00
2018-04-29T04:38:52.297Z,200.00
2018-04-29T04:39:52.170Z,228.00
2018-04-29T04:40:52.048Z,260.00
2018-04-29T04:41:51.923Z,268.00
2018-04-29T04:42:51.798Z,248.00
2018-04-29T04:43:51.675Z,300.00
2018-04-29T04:44:51.549Z,352.00
2018-04-29T04:45:51.427Z,368.00
2018-04-29T04:46:51.296Z,388.00
2018-04-29T04:49:22.650Z,424.00
2018-04-29T04:50:22.474Z,364.00
2018-04-29T04:52:15.134Z,348.00
2018-04-29T04:53:15.000Z,420.00
2018-04-29T04:54:14.875Z,464.00
2018-04-29T04:55:14.751Z,500.00
2018-04-29T04:56:14.626Z,504.00
2018-04-29T04:57:14.502Z,560.00
2018-04-29T04:58:14.435Z,580.00
2018-04-29T04:59:14.252Z,648.00
2018-04-29T05:00:14.127Z,680.00
2018-04-29T05:01:14.011Z,684.00
2018-04-29T05:02:13.878Z,692.00
2018-04-29T05:03:13.754Z,676.00
2018-04-29T05:04:13.630Z,680.00
2018-04-29T05:05:13.505Z,556.00
2018-04-29T05:06:13.381Z,592.00
2018-04-29T05:07:13.293Z,852.00
2018-04-29T05:08:13.131Z,904.00
2018-04-29T05:09:13.012Z,860.00
2018-04-29T05:10:12.883Z,876.00
2018-04-29T05:11:12.758Z,876.00
2018-04-29T05:12:12.634Z,960.00
2018-04-29T05:13:12.510Z,1076.00
2018-04-29T05:14:12.384Z,1120.00
2018-04-29T05:15:12.261Z,1148.00
2018-04-29T05:16:12.137Z,1168.00
2018-04-29T05:17:12.013Z,1156.00
2018-04-29T05:18:11.886Z,1272.00
2018-04-29T05:19:11.762Z,1292.00
2018-04-29T05:20:11.640Z,1260.00
2018-04-29T05:21:11.516Z,1336.00
2018-04-29T05:22:11.422Z,1456.00
2018-04-29T05:23:11.268Z,1348.00
2018-04-29T05:24:11.143Z,1208.00
2018-04-29T05:25:11.021Z,1348.00
2018-04-29T05:26:10.895Z,1444.00
2018-04-29T05:27:10.771Z,1444.00
2018-04-29T05:28:10.647Z,1304.00
2018-04-29T05:29:10.524Z,1304.00
2018-04-29T05:30:10.399Z,1392.00
2018-04-29T05:31:10.275Z,1412.00
2018-04-29T05:32:10.152Z,1372.00
2018-04-29T05:33:10.028Z,1528.00
2018-04-29T05:34:09.904Z,1568.00
2018-04-29T05:35:09.781Z,1576.00
2018-04-29T05:36:09.658Z,1592.00
2018-04-29T05:37:09.534Z,1552.00
2018-04-29T05:38:09.408Z,1620.00
2018-04-29T05:39:09.288Z,1488.00
2018-04-29T05:40:09.164Z,1380.00
2018-04-29T05:41:09.055Z,1368.00
2018-04-29T05:42:08.916Z,1516.00
2018-04-29T05:43:08.795Z,1684.00
2018-04-29T05:44:08.671Z,1680.00
2018-04-29T05:45:08.548Z,1732.00
2018-04-29T05:46:08.422Z,1748.00
2018-04-29T05:47:08.299Z,1708.00
2018-04-29T05:48:08.176Z,1504.00
2018-04-29T05:49:08.054Z,1376.00
2018-04-29T05:50:07.936Z,1364.00
2018-04-29T05:51:07.809Z,1332.00
2018-04-29T05:52:07.687Z,1412.00
2018-04-29T05:53:07.563Z,1664.00
2018-04-29T05:54:07.440Z,1520.00
2018-04-29T05:55:07.316Z,1400.00
2018-04-29T05:56:07.194Z,1444.00
2018-04-29T05:57:07.071Z,1444.00
2018-04-29T05:58:06.950Z,1492.00
2018-04-29T05:59:06.827Z,1520.00
2018-04-29T06:00:06.707Z,1496.00
2018-04-29T06:01:06.583Z,1628.00
2018-04-29T06:02:06.459Z,1572.00
2018-04-29T06:03:06.344Z,1432.00
2018-04-29T06:04:06.215Z,1472.00
2018-04-29T06:05:06.094Z,1548.00
2018-04-29T06:06:05.971Z,1796.00
2018-04-29T06:07:05.848Z,1628.00
2018-04-29T06:08:05.728Z,1556.00
2018-04-29T06:09:05.603Z,1840.00
2018-04-29T06:10:05.480Z,1896.00
2018-04-29T06:11:05.361Z,1884.00
2018-04-29T06:12:05.238Z,1724.00
2018-04-29T06:13:05.116Z,1984.00
2018-04-29T06:14:05.027Z,2816.00
2018-04-29T06:15:04.872Z,2836.00
2018-04-29T06:16:04.749Z,1960.00
2018-04-29T06:17:04.627Z,1908.00
2018-04-29T06:18:04.502Z,1800.00
2018-04-29T06:19:04.381Z,2004.00
2018-04-29T06:20:04.259Z,2464.00
2018-04-29T06:21:04.138Z,2944.00
2018-04-29T06:22:04.015Z,2784.00
2018-04-29T06:23:03.893Z,2660.00
2018-04-29T06:24:03.771Z,2984.00
2018-04-29T06:25:03.651Z,2364.00
2018-04-29T06:26:03.610Z,2908.00
2018-04-29T06:27:03.406Z,2904.00
2018-04-29T06:28:03.283Z,2916.00
2018-04-29T06:29:03.161Z,2452.00
2018-04-29T06:30:03.041Z,2664.00
2018-04-29T06:31:02.917Z,2776.00
2018-04-29T06:32:02.810Z,2984.00
2018-04-29T06:33:02.675Z,2608.00
2018-04-29T06:34:02.550Z,2556.00
2018-04-29T06:35:02.431Z,2344.00
2018-04-29T06:36:02.316Z,2088.00
2018-04-29T06:37:02.188Z,2200.00
2018-04-29T06:38:02.065Z,2200.00
2018-04-29T06:39:01.942Z,1980.00
2018-04-29T06:40:01.821Z,1908.00
2018-04-29T06:41:01.700Z,2108.00
2018-04-29T06:42:01.577Z,2368.00
2018-04-29T06:43:01.456Z,2388.00
2018-04-29T06:44:01.332Z,2536.00
2018-04-29T06:45:01.211Z,3132.00
2018-04-29T06:46:01.090Z,2552.00
2018-04-29T06:47:00.971Z,2144.00
2018-04-29T06:48:00.848Z,1944.00
2018-04-29T06:49:00.723Z,1828.00
2018-04-29T06:50:00.600Z,1832.00
2018-04-29T06:51:00.478Z,1696.00
2018-04-29T06:52:00.356Z,1596.00
2018-04-29T06:53:00.233Z,1520.00
2018-04-29T06:54:00.120Z,1572.00
2018-04-29T06:54:59.987Z,1652.00
2018-04-29T06:55:59.863Z,1776.00
2018-04-29T06:56:59.744Z,1608.00
2018-04-29T06:57:59.620Z,1544.00
2018-04-29T06:58:59.498Z,1808.00
2018-04-29T06:59:59.377Z,1708.00
2018-04-29T07:00:59.254Z,1832.00
2018-04-29T07:01:59.130Z,2072.00
2018-04-29T07:02:59.009Z,2104.00
2018-04-29T07:03:58.886Z,1796.00
2018-04-29T07:04:58.763Z,1708.00
2018-04-29T07:05:58.640Z,1776.00
2018-04-29T07:06:58.521Z,1428.00
2018-04-29T07:07:58.396Z,1380.00
2018-04-29T07:08:58.273Z,1416.00
2018-04-29T07:09:58.150Z,1700.00
2018-04-29T07:10:58.027Z,1836.00
2018-04-29T07:11:57.905Z,1836.00
2018-04-29T07:12:57.783Z,2112.00
2018-04-29T07:13:57.658Z,2324.00
2018-04-29T07:14:57.538Z,2132.00
2018-04-29T07:15:57.424Z,1868.00
2018-04-29T07:16:57.292Z,1704.00
2018-04-29T07:17:57.169Z,1644.00
2018-04-29T07:18:57.047Z,1884.00
2018-04-29T07:19:57.000Z,2360.00
2018-04-29T07:20:56.802Z,2544.00
2018-04-29T07:21:56.678Z,2600.00
2018-04-29T07:22:56.557Z,2116.00
2018-04-29T07:23:56.433Z,2220.00
2018-04-29T07:24:56.314Z,2292.00
2018-04-29T07:25:56.189Z,2424.00
2018-04-29T07:26:56.068Z,2656.00
2018-04-29T07:27:55.944Z,2672.00
2018-04-29T07:28:55.829Z,2444.00
2018-04-29T07:29:55.699Z,2616.00
2018-04-29T07:30:55.578Z,2980.00
2018-04-29T07:31:55.453Z,3080.00
2018-04-29T07:32:55.332Z,3688.00
2018-04-29T07:33:55.208Z,4444.00
2018-04-29T07:34:55.091Z,4036.00
2018-04-29T07:35:54.962Z,3600.00
2018-04-29T07:36:54.841Z,3848.00
2018-04-29T07:37:54.720Z,4076.00
2018-04-29T07:38:54.595Z,4568.00
2018-04-29T07:39:54.568Z,4156.00
2018-04-29T07:40:54.350Z,5016.00
2018-04-29T07:41:54.230Z,5200.00
2018-04-29T07:42:54.106Z,5212.00
2018-04-29T07:43:53.982Z,5512.00
2018-04-29T07:44:53.861Z,5536.00
2018-04-29T07:45:53.737Z,5820.00
2018-04-29T07:46:53.617Z,5648.00
2018-04-29T07:47:53.505Z,4020.00
2018-04-29T07:48:53.375Z,3672.00
2018-04-29T07:49:53.251Z,4296.00
2018-04-29T07:50:53.130Z,3372.00
2018-04-29T07:51:53.010Z,3004.00
2018-04-29T07:52:52.884Z,3560.00
2018-04-29T07:53:52.765Z,3476.00
2018-04-29T07:54:52.646Z,3512.00
2018-04-29T07:55:52.520Z,4272.00
2018-04-29T07:56:52.400Z,3432.00
2018-04-29T07:57:52.278Z,3204.00
2018-04-29T07:58:52.195Z,3000.00
2018-04-29T07:59:52.037Z,3076.00
2018-04-29T08:00:52.014Z,3360.00
2018-04-29T08:01:51.793Z,4124.00
2018-04-29T08:02:51.672Z,5136.00
2018-04-29T08:03:51.549Z,4144.00
2018-04-29T08:04:51.433Z,3564.00
2018-04-29T08:05:51.307Z,3572.00
2018-04-29T08:06:51.292Z,2908.00
2018-04-29T08:07:51.064Z,2448.00
2018-04-29T08:08:50.944Z,2436.00
2018-04-29T08:09:50.821Z,2868.00
2018-04-29T08:10:50.701Z,3788.00
2018-04-29T08:11:50.578Z,3984.00
2018-04-29T08:12:50.466Z,2960.00
2018-04-29T08:13:50.336Z,2452.00
2018-04-29T08:14:50.216Z,2460.00
2018-04-29T08:15:50.107Z,2752.00
2018-04-29T08:16:49.973Z,2836.00
2018-04-29T08:17:49.851Z,2624.00
2018-04-29T08:18:49.730Z,2660.00
2018-04-29T08:19:49.612Z,3372.00
2018-04-29T08:20:49.488Z,4648.00
2018-04-29T08:21:49.365Z,5864.00
2018-04-29T08:22:49.350Z,5920.00
2018-04-29T08:23:49.123Z,5244.00
2018-04-29T08:24:49.004Z,3836.00
2018-04-29T08:25:48.880Z,2732.00
2018-04-29T08:26:48.760Z,2556.00
2018-04-29T08:27:48.636Z,2808.00
2018-04-29T08:28:48.515Z,3188.00
2018-04-29T08:29:48.395Z,2992.00
2018-04-29T08:30:48.275Z,2988.00
2018-04-29T08:31:48.153Z,3028.00
2018-04-29T08:32:48.030Z,2592.00
2018-04-29T08:33:47.909Z,2260.00
2018-04-29T08:34:47.790Z,2288.00
2018-04-29T08:35:47.666Z,2376.00
2018-04-29T08:36:47.546Z,2496.00
2018-04-29T08:37:47.429Z,3036.00
2018-04-29T08:38:47.305Z,3672.00
2018-04-29T08:39:47.188Z,3288.00
2018-04-29T08:40:47.067Z,3408.00
2018-04-29T08:41:46.990Z,3496.00
2018-04-29T08:42:46.817Z,3636.00
2018-04-29T08:43:46.699Z,4276.00
2018-04-29T08:44:46.580Z,4156.00
2018-04-29T08:45:46.455Z,4028.00
2018-04-29T08:46:46.335Z,3576.00
2018-04-29T08:47:46.212Z,2964.00
2018-04-29T08:48:46.092Z,2864.00
2018-04-29T08:49:45.972Z,3164.00
2018-04-29T08:50:45.848Z,3664.00
2018-04-29T08:51:45.728Z,4180.00
2018-04-29T08:52:45.609Z,4192.00
2018-04-29T08:53:45.485Z,4272.00
2018-04-29T08:54:45.366Z,4472.00
2018-04-29T08:55:45.243Z,4552.00
2018-04-29T08:56:45.121Z,5044.00
2018-04-29T08:57:45.000Z,4920.00
2018-04-29T08:58:44.883Z,5296.00
2018-04-29T08:59:44.759Z,5100.00
2018-04-29T09:00:44.637Z,5120.00
2018-04-29T09:01:44.534Z,4828.00
2018-04-29T09:02:44.396Z,5136.00
2018-04-29T09:03:44.369Z,6172.00
2018-04-29T09:04:44.153Z,6864.00
2018-04-29T09:05:44.032Z,7608.00
2018-04-29T09:06:43.915Z,6756.00
2018-04-29T09:07:43.790Z,8324.00
2018-04-29T09:08:43.672Z,7216.00
2018-04-29T09:09:43.549Z,7776.00
2018-04-29T09:10:43.427Z,6936.00
2018-04-29T09:11:43.307Z,6044.00
2018-04-29T09:12:43.186Z,6624.00
2018-04-29T09:13:43.066Z,6920.00
2018-04-29T09:14:42.947Z,6728.00
2018-04-29T09:15:42.826Z,6432.00
2018-04-29T09:16:42.705Z,5436.00
2018-04-29T09:17:42.644Z,5312.00
2018-04-29T09:18:42.466Z,5708.00
2018-04-29T09:19:42.347Z,6856.00
2018-04-29T09:20:42.226Z,6380.00
2018-04-29T09:21:42.108Z,6544.00
2018-04-29T09:22:41.988Z,6880.00
2018-04-29T09:23:41.865Z,6816.00
2018-04-29T09:24:41.748Z,5544.00
2018-04-29T09:25:41.628Z,6144.00
2018-04-29T09:26:41.508Z,6600.00
2018-04-29T09:27:41.390Z,7544.00
2018-04-29T09:28:41.268Z,7904.00
2018-04-29T09:29:41.149Z,7284.00
2018-04-29T09:30:41.031Z,7024.00
2018-04-29T09:31:40.911Z,6224.00
2018-04-29T09:32:40.790Z,6464.00
2018-04-29T09:33:40.672Z,6608.00
2018-04-29T09:34:40.557Z,8168.00
2018-04-29T09:35:40.432Z,6288.00
2018-04-29T09:36:40.313Z,6348.00
2018-04-29T09:37:40.191Z,7332.00
2018-04-29T09:38:40.074Z,6520.00
2018-04-29T09:39:39.956Z,7872.00
2018-04-29T09:40:39.833Z,7672.00
2018-04-29T09:41:39.714Z,7680.00
2018-04-29T09:42:39.597Z,6748.00
2018-04-29T09:43:39.504Z,7304.00
2018-04-29T09:44:39.356Z,7136.00
2018-04-29T09:45:39.237Z,6716.00
2018-04-29T09:46:39.114Z,6980.00
2018-04-29T09:47:38.997Z,5772.00
2018-04-29T09:48:38.916Z,6152.00
2018-04-29T09:49:38.756Z,6032.00
2018-04-29T09:50:38.635Z,6112.00
2018-04-29T09:51:38.517Z,5964.00
2018-04-29T09:52:38.398Z,7152.00
2018-04-29T09:53:38.277Z,6676.00
2018-04-29T09:54:38.157Z,5332.00
2018-04-29T09:55:38.039Z,5016.00
2018-04-29T09:56:37.920Z,5624.00
2018-04-29T09:57:37.798Z,5956.00
2018-04-29T09:58:37.678Z,7164.00
2018-04-29T09:59:37.560Z,8312.00
2018-04-29T10:00:37.447Z,7208.00
2018-04-29T10:01:37.320Z,6252.00
2018-04-29T10:02:37.202Z,6252.00
2018-04-29T10:03:37.087Z,6840.00
2018-04-29T10:04:36.962Z,6664.00
2018-04-29T10:05:36.840Z,6888.00
2018-04-29T10:06:36.722Z,7824.00
2018-04-29T10:07:36.603Z,6664.00
2018-04-29T10:08:36.483Z,5116.00
2018-04-29T10:09:36.398Z,5488.00
2018-04-29T10:10:36.245Z,7644.00
2018-04-29T10:11:36.127Z,7824.00
2018-04-29T10:12:36.006Z,6304.00
2018-04-29T10:13:35.887Z,5736.00
2018-04-29T10:14:35.769Z,5476.00
2018-04-29T10:15:35.650Z,5524.00
2018-04-29T10:16:35.532Z,6628.00
2018-04-29T10:17:35.410Z,6756.00
2018-04-29T10:18:35.296Z,6780.00
2018-04-29T10:19:35.174Z,7016.00
2018-04-29T10:20:35.057Z,6696.00
2018-04-29T10:21:34.934Z,5604.00
2018-04-29T10:22:34.815Z,5040.00
2018-04-29T10:23:34.695Z,4868.00
2018-04-29T10:24:34.586Z,4916.00
2018-04-29T10:25:34.456Z,5576.00
2018-04-29T10:26:34.340Z,7704.00
2018-04-29T10:27:34.220Z,8324.00
2018-04-29T10:28:34.098Z,8200.00
2018-04-29T10:29:33.979Z,8496.00
2018-04-29T10:30:33.861Z,7512.00
2018-04-29T10:31:33.741Z,8068.00
2018-04-29T10:32:33.621Z,6864.00
2018-04-29T10:33:33.500Z,6120.00
2018-04-29T10:34:33.382Z,6000.00
2018-04-29T10:35:33.263Z,6876.00
2018-04-29T10:36:33.148Z,8492.00
2018-04-29T10:37:33.025Z,9024.00
2018-04-29T10:38:32.906Z,8664.00
2018-04-29T10:39:32.787Z,9056.00
2018-04-29T10:40:32.668Z,7444.00
2018-04-29T10:41:32.548Z,6972.00
2018-04-29T10:42:32.430Z,7192.00
2018-04-29T10:43:32.309Z,7260.00
2018-04-29T10:44:32.191Z,7328.00
2018-04-29T10:45:32.071Z,7752.00
2018-04-29T10:46:31.956Z,7180.00
2018-04-29T10:47:31.836Z,8476.00
2018-04-29T10:48:31.715Z,9608.00
2018-04-29T10:49:31.595Z,9560.00
2018-04-29T10:50:31.476Z,8224.00
2018-04-29T10:51:31.359Z,6860.00
2018-04-29T10:52:31.279Z,7372.00
2018-04-29T10:53:31.122Z,8320.00
2018-04-29T10:54:31.003Z,8216.00
2018-04-29T10:55:30.886Z,7008.00
2018-04-29T10:56:30.768Z,6464.00
2018-04-29T10:57:30.648Z,6652.00
2018-04-29T10:58:30.530Z,6452.00
2018-04-29T10:59:30.411Z,6120.00
2018-04-29T11:00:30.296Z,6956.00
2018-04-29T11:01:30.174Z,5600.00
2018-04-29T11:02:30.056Z,4108.00
2018-04-29T11:03:29.946Z,4796.00
2018-04-29T11:04:29.820Z,5944.00
2018-04-29T11:05:29.700Z,6428.00
2018-04-29T11:06:29.581Z,5852.00
2018-04-29T11:07:29.461Z,5224.00
2018-04-29T11:08:29.342Z,4848.00
2018-04-29T11:09:29.222Z,4232.00
2018-04-29T11:10:29.102Z,3812.00
2018-04-29T11:11:28.985Z,4492.00
2018-04-29T11:12:28.865Z,5432.00
2018-04-29T11:13:28.745Z,5056.00
2018-04-29T11:14:28.628Z,5188.00
2018-04-29T11:15:28.507Z,5480.00
2018-04-29T11:16:28.388Z,6888.00
2018-04-29T11:17:28.268Z,10608.00
2018-04-29T11:18:28.152Z,8052.00
2018-04-29T11:19:28.030Z,7588.00
2018-04-29T11:20:27.910Z,8648.00
2018-04-29T11:21:27.790Z,8128.00
2018-04-29T11:22:27.679Z,7140.00
2018-04-29T11:23:27.552Z,6392.00
2018-04-29T11:24:27.434Z,6972.00
2018-04-29T11:25:27.317Z,8320.00
2018-04-29T11:26:27.196Z,10924.00
2018-04-29T11:27:27.076Z,10800.00
2018-04-29T11:28:26.961Z,7684.00
2018-04-29T11:29:26.845Z,10668.00
2018-04-29T11:30:26.724Z,7756.00
2018-04-29T11:31:26.607Z,8856.00
2018-04-29T11:32:26.487Z,7740.00
2018-04-29T11:33:26.372Z,6336.00
2018-04-29T11:34:26.251Z,6344.00
2018-04-29T11:35:26.135Z,7188.00
2018-04-29T11:36:26.017Z,8248.00
2018-04-29T11:37:25.901Z,8804.00
2018-04-29T11:38:25.783Z,12048.00
2018-04-29T11:39:25.663Z,11240.00
2018-04-29T11:40:25.580Z,6996.00
2018-04-29T11:41:25.431Z,7564.00
2018-04-29T11:42:25.313Z,8824.00
2018-04-29T11:43:25.196Z,12436.00
2018-04-29T11:44:25.079Z,7916.00
2018-04-29T11:45:24.963Z,7460.00
2018-04-29T11:46:24.845Z,7252.00
2018-04-29T11:47:24.729Z,9508.00
2018-04-29T11:48:24.613Z,9468.00
2018-04-29T11:49:24.493Z,11284.00
2018-04-29T11:50:24.379Z,7040.00
2018-04-29T11:51:24.261Z,11952.00
2018-04-29T11:52:24.145Z,7948.00
2018-04-29T11:53:24.025Z,8064.00
2018-04-29T11:54:23.912Z,11088.00
2018-04-29T11:55:23.792Z,8408.00
2018-04-29T11:56:23.677Z,8540.00
2018-04-29T11:57:23.558Z,8860.00
2018-04-29T11:58:23.440Z,5900.00
2018-04-29T11:59:23.326Z,10604.00
2018-04-29T12:00:23.208Z,7676.00
2018-04-29T12:01:23.090Z,13232.00
2018-04-29T12:02:22.971Z,12600.00
2018-04-29T12:03:22.856Z,12348.00
2018-04-29T12:04:22.739Z,10152.00
2018-04-29T12:05:22.621Z,8104.00
2018-04-29T12:06:22.506Z,7584.00
2018-04-29T12:07:22.387Z,8792.00
2018-04-29T12:08:22.273Z,8736.00
2018-04-29T12:09:22.185Z,9560.00
2018-04-29T12:10:22.042Z,9268.00
2018-04-29T12:11:21.920Z,8448.00
2018-04-29T12:12:21.871Z,7884.00
2018-04-29T12:13:21.689Z,8472.00
2018-04-29T12:14:21.568Z,9888.00
2018-04-29T12:15:21.452Z,10020.00
2018-04-29T12:16:21.413Z,12608.00
2018-04-29T12:17:21.219Z,12960.00
2018-04-29T12:18:21.107Z,8136.00
2018-04-29T12:19:20.983Z,6884.00
2018-04-29T12:20:20.865Z,5532.00
2018-04-29T12:21:20.749Z,4508.00
2018-04-29T12:22:20.632Z,3756.00
2018-04-29T12:23:20.519Z,4228.00
2018-04-29T12:24:20.398Z,4624.00
2018-04-29T12:25:20.279Z,4856.00
2018-04-29T12:26:20.160Z,4736.00
2018-04-29T12:27:20.043Z,4244.00
2018-04-29T12:28:19.926Z,4268.00
2018-04-29T12:29:19.807Z,5548.00
2018-04-29T12:30:19.690Z,5584.00
2018-04-29T12:31:19.570Z,6516.00